sensor_id;sensor_type;location;lat;lon;timestamp;temperature;humidity
12470;DHT22;36499;46.484;13.832;2022-07-29T00:01:08;18.00;99.90
12470;DHT22;36499;46.484;13.832;2022-07-29T00:03:35;17.90;99.90
12470;DHT22;36499;46.484;13.832;2022-07-29T00:06:02;17.90;99.90
12470;DHT22;36499;46.484;13.832;2022-07-29T00:08:29;17.80;99.90
12470;DHT22;36499;46.484;13.832;2022-07-29T00:10:57;17.80;99.90
12470;DHT22;36499;46.484;13.832;2022-07-29T00:13:24;17.70;99.90
12470;DHT22;36499;46.484;13.832;2022-07-29T00:15:51;17.60;99.90
12470;DHT22;36499;46.484;13.832;2022-07-29T00:18:19;17.50;99.90
12470;DHT22;36499;46.484;13.832;2022-07-29T00:20:46;17.40;99.90
12470;DHT22;36499;46.484;13.832;2022-07-29T00:23:14;17.30;99.90
12470;DHT22;36499;46.484;13.832;2022-07-29T00:25:41;17.30;99.90
12470;DHT22;36499;46.484;13.832;2022-07-29T00:28:08;17.20;99.90
12470;DHT22;36499;46.484;13.832;2022-07-29T00:30:35;17.20;99.90
12470;DHT22;36499;46.484;13.832;2022-07-29T00:33:02;17.20;99.90
12470;DHT22;36499;46.484;13.832;2022-07-29T00:35:31;17.10;99.90
12470;DHT22;36499;46.484;13.832;2022-07-29T00:38:09;17.10;99.90
12470;DHT22;36499;46.484;13.832;2022-07-29T00:40:37;17.00;99.90
12470;DHT22;36499;46.484;13.832;2022-07-29T00:43:04;17.00;99.90
12470;DHT22;36499;46.484;13.832;2022-07-29T00:45:31;17.00;99.90
12470;DHT22;36499;46.484;13.832;2022-07-29T00:47:58;17.00;99.90
12470;DHT22;36499;46.484;13.832;2022-07-29T00:50:26;17.00;99.90
12470;DHT22;36499;46.484;13.832;2022-07-29T00:52:55;17.00;99.90
12470;DHT22;36499;46.484;13.832;2022-07-29T00:55:23;17.10;99.90
12470;DHT22;36499;46.484;13.832;2022-07-29T00:57:50;17.10;99.90
12470;DHT22;36499;46.484;13.832;2022-07-29T01:00:20;17.10;99.90
12470;DHT22;36499;46.484;13.832;2022-07-29T01:02:50;17.10;99.90
12470;DHT22;36499;46.484;13.832;2022-07-29T01:05:20;17.10;99.90
12470;DHT22;36499;46.484;13.832;2022-07-29T01:07:51;17.10;99.90
12470;DHT22;36499;46.484;13.832;2022-07-29T01:10:22;17.00;99.90
12470;DHT22;36499;46.484;13.832;2022-07-29T01:12:52;17.00;99.90
12470;DHT22;36499;46.484;13.832;2022-07-29T01:15:21;16.90;99.90
12470;DHT22;36499;46.484;13.832;2022-07-29T01:17:54;16.90;99.90
12470;DHT22;36499;46.484;13.832;2022-07-29T01:20:34;16.80;99.90
12470;DHT22;36499;46.484;13.832;2022-07-29T01:23:42;16.70;99.90
12470;DHT22;36499;46.484;13.832;2022-07-29T01:26:43;16.70;99.90
12470;DHT22;36499;46.484;13.832;2022-07-29T01:29:27;16.70;99.90
12470;DHT22;36499;46.484;13.832;2022-07-29T01:31:59;16.60;99.90
12470;DHT22;36499;46.484;13.832;2022-07-29T01:34:35;16.60;99.90
12470;DHT22;36499;46.484;13.832;2022-07-29T01:37:20;16.50;99.90
12470;DHT22;36499;46.484;13.832;2022-07-29T01:40:03;16.50;99.90
12470;DHT22;36499;46.484;13.832;2022-07-29T01:42:52;16.40;99.90
12470;DHT22;36499;46.484;13.832;2022-07-29T01:45:27;16.30;99.90
12470;DHT22;36499;46.484;13.832;2022-07-29T01:48:06;16.40;99.90
12470;DHT22;36499;46.484;13.832;2022-07-29T01:50:45;16.40;99.90
12470;DHT22;36499;46.484;13.832;2022-07-29T01:53:21;16.40;99.90
12470;DHT22;36499;46.484;13.832;2022-07-29T01:55:55;16.20;99.90
12470;DHT22;36499;46.484;13.832;2022-07-29T01:58:27;16.20;99.90
12470;DHT22;36499;46.484;13.832;2022-07-29T02:00:58;16.10;99.90
12470;DHT22;36499;46.484;13.832;2022-07-29T02:03:28;16.10;99.90
12470;DHT22;36499;46.484;13.832;2022-07-29T02:06:00;16.00;99.90
12470;DHT22;36499;46.484;13.832;2022-07-29T02:08:31;16.00;99.90
12470;DHT22;36499;46.484;13.832;2022-07-29T02:11:00;16.00;99.90
12470;DHT22;36499;46.484;13.832;2022-07-29T02:13:40;16.00;99.90
12470;DHT22;36499;46.484;13.832;2022-07-29T02:16:15;16.00;99.90
12470;DHT22;36499;46.484;13.832;2022-07-29T02:18:46;16.10;99.90
12470;DHT22;36499;46.484;13.832;2022-07-29T02:21:21;16.10;99.90
12470;DHT22;36499;46.484;13.832;2022-07-29T02:23:56;16.10;99.90
12470;DHT22;36499;46.484;13.832;2022-07-29T02:26:27;16.10;99.90
12470;DHT22;36499;46.484;13.832;2022-07-29T02:28:57;16.10;99.90
12470;DHT22;36499;46.484;13.832;2022-07-29T02:31:30;16.00;99.90
12470;DHT22;36499;46.484;13.832;2022-07-29T02:34:02;16.00;99.90
12470;DHT22;36499;46.484;13.832;2022-07-29T02:36:32;16.00;99.90
12470;DHT22;36499;46.484;13.832;2022-07-29T02:39:02;16.00;99.90
12470;DHT22;36499;46.484;13.832;2022-07-29T02:41:42;16.00;99.90
12470;DHT22;36499;46.484;13.832;2022-07-29T02:44:14;16.00;99.90
12470;DHT22;36499;46.484;13.832;2022-07-29T02:47:01;15.90;99.90
12470;DHT22;36499;46.484;13.832;2022-07-29T02:49:37;16.00;99.90
12470;DHT22;36499;46.484;13.832;2022-07-29T02:52:16;15.90;99.90
12470;DHT22;36499;46.484;13.832;2022-07-29T02:54:53;15.90;99.90
12470;DHT22;36499;46.484;13.832;2022-07-29T02:57:28;15.90;99.90
12470;DHT22;36499;46.484;13.832;2022-07-29T03:00:02;15.70;99.90
12470;DHT22;36499;46.484;13.832;2022-07-29T03:02:37;15.70;99.90
12470;DHT22;36499;46.484;13.832;2022-07-29T03:05:10;15.60;99.90
12470;DHT22;36499;46.484;13.832;2022-07-29T03:07:45;15.60;99.90
12470;DHT22;36499;46.484;13.832;2022-07-29T03:10:14;15.50;99.90
12470;DHT22;36499;46.484;13.832;2022-07-29T03:12:42;15.50;99.90
12470;DHT22;36499;46.484;13.832;2022-07-29T03:15:11;15.40;99.90
12470;DHT22;36499;46.484;13.832;2022-07-29T03:17:41;15.50;99.90
12470;DHT22;36499;46.484;13.832;2022-07-29T03:20:10;15.50;99.90
12470;DHT22;36499;46.484;13.832;2022-07-29T03:22:39;15.40;99.90
12470;DHT22;36499;46.484;13.832;2022-07-29T03:25:09;15.40;99.90
12470;DHT22;36499;46.484;13.832;2022-07-29T03:27:37;15.30;99.90
12470;DHT22;36499;46.484;13.832;2022-07-29T03:30:06;15.20;99.90
12470;DHT22;36499;46.484;13.832;2022-07-29T03:32:34;15.20;99.90
12470;DHT22;36499;46.484;13.832;2022-07-29T03:35:04;15.20;99.90
12470;DHT22;36499;46.484;13.832;2022-07-29T03:37:32;15.20;99.90
12470;DHT22;36499;46.484;13.832;2022-07-29T03:40:04;15.20;99.90
12470;DHT22;36499;46.484;13.832;2022-07-29T03:42:38;15.20;99.90
12470;DHT22;36499;46.484;13.832;2022-07-29T03:45:10;15.20;99.90
12470;DHT22;36499;46.484;13.832;2022-07-29T03:47:45;15.20;99.90
12470;DHT22;36499;46.484;13.832;2022-07-29T03:50:18;15.20;99.90
12470;DHT22;36499;46.484;13.832;2022-07-29T03:52:48;15.20;99.90
12470;DHT22;36499;46.484;13.832;2022-07-29T03:55:16;15.20;99.90
12470;DHT22;36499;46.484;13.832;2022-07-29T03:57:45;15.20;99.90
12470;DHT22;36499;46.484;13.832;2022-07-29T04:00:13;15.30;99.90
12470;DHT22;36499;46.484;13.832;2022-07-29T04:02:43;15.30;99.90
12470;DHT22;36499;46.484;13.832;2022-07-29T04:05:14;15.30;99.90
12470;DHT22;36499;46.484;13.832;2022-07-29T04:07:44;15.30;99.90
12470;DHT22;36499;46.484;13.832;2022-07-29T04:10:11;15.30;99.90
12470;DHT22;36499;46.484;13.832;2022-07-29T04:12:41;15.40;99.90
12470;DHT22;36499;46.484;13.832;2022-07-29T04:15:09;15.50;99.90
12470;DHT22;36499;46.484;13.832;2022-07-29T04:17:37;15.50;99.90
12470;DHT22;36499;46.484;13.832;2022-07-29T04:20:05;15.60;99.90
12470;DHT22;36499;46.484;13.832;2022-07-29T04:22:34;15.70;99.90
12470;DHT22;36499;46.484;13.832;2022-07-29T04:25:01;15.80;99.90
12470;DHT22;36499;46.484;13.832;2022-07-29T04:27:28;15.80;99.90
12470;DHT22;36499;46.484;13.832;2022-07-29T04:29:55;15.80;99.90
12470;DHT22;36499;46.484;13.832;2022-07-29T04:32:22;15.90;99.90
12470;DHT22;36499;46.484;13.832;2022-07-29T04:34:50;15.90;99.90
12470;DHT22;36499;46.484;13.832;2022-07-29T04:37:17;16.00;99.90
12470;DHT22;36499;46.484;13.832;2022-07-29T04:39:46;16.00;99.90
12470;DHT22;36499;46.484;13.832;2022-07-29T04:42:14;16.00;99.90
12470;DHT22;36499;46.484;13.832;2022-07-29T04:44:41;16.10;99.90
12470;DHT22;36499;46.484;13.832;2022-07-29T04:47:08;16.10;99.90
12470;DHT22;36499;46.484;13.832;2022-07-29T04:49:37;16.10;99.90
12470;DHT22;36499;46.484;13.832;2022-07-29T04:52:05;16.20;99.90
12470;DHT22;36499;46.484;13.832;2022-07-29T04:54:32;16.20;99.90
12470;DHT22;36499;46.484;13.832;2022-07-29T04:57:01;16.20;99.90
12470;DHT22;36499;46.484;13.832;2022-07-29T04:59:28;16.30;99.90
12470;DHT22;36499;46.484;13.832;2022-07-29T05:01:55;16.30;99.90
12470;DHT22;36499;46.484;13.832;2022-07-29T05:04:22;16.40;99.90
12470;DHT22;36499;46.484;13.832;2022-07-29T05:06:49;16.40;99.90
12470;DHT22;36499;46.484;13.832;2022-07-29T05:09:16;16.50;99.90
12470;DHT22;36499;46.484;13.832;2022-07-29T05:11:43;16.70;99.90
12470;DHT22;36499;46.484;13.832;2022-07-29T05:14:12;16.90;99.90
12470;DHT22;36499;46.484;13.832;2022-07-29T05:16:39;17.20;99.90
12470;DHT22;36499;46.484;13.832;2022-07-29T05:19:07;17.30;99.90
12470;DHT22;36499;46.484;13.832;2022-07-29T05:21:34;17.50;99.90
12470;DHT22;36499;46.484;13.832;2022-07-29T05:24:01;17.70;99.90
12470;DHT22;36499;46.484;13.832;2022-07-29T05:26:29;17.80;99.90
12470;DHT22;36499;46.484;13.832;2022-07-29T05:28:56;17.80;99.90
12470;DHT22;36499;46.484;13.832;2022-07-29T05:31:25;17.80;99.90
12470;DHT22;36499;46.484;13.832;2022-07-29T05:33:52;17.90;99.90
12470;DHT22;36499;46.484;13.832;2022-07-29T05:36:19;17.90;99.90
12470;DHT22;36499;46.484;13.832;2022-07-29T05:38:46;18.00;99.90
12470;DHT22;36499;46.484;13.832;2022-07-29T05:41:14;18.10;99.90
12470;DHT22;36499;46.484;13.832;2022-07-29T05:43:41;18.20;99.90
12470;DHT22;36499;46.484;13.832;2022-07-29T05:46:08;18.20;99.90
12470;DHT22;36499;46.484;13.832;2022-07-29T05:48:36;18.30;99.90
12470;DHT22;36499;46.484;13.832;2022-07-29T05:51:04;18.30;99.90
12470;DHT22;36499;46.484;13.832;2022-07-29T05:53:31;18.40;99.90
12470;DHT22;36499;46.484;13.832;2022-07-29T05:56:03;18.40;99.90
12470;DHT22;36499;46.484;13.832;2022-07-29T05:58:31;18.50;99.90
12470;DHT22;36499;46.484;13.832;2022-07-29T06:00:58;18.50;99.90
12470;DHT22;36499;46.484;13.832;2022-07-29T06:03:26;18.50;99.90
12470;DHT22;36499;46.484;13.832;2022-07-29T06:05:54;18.60;99.90
12470;DHT22;36499;46.484;13.832;2022-07-29T06:08:21;18.60;99.90
12470;DHT22;36499;46.484;13.832;2022-07-29T06:10:49;18.70;99.90
12470;DHT22;36499;46.484;13.832;2022-07-29T06:13:16;18.80;99.90
12470;DHT22;36499;46.484;13.832;2022-07-29T06:15:43;18.80;99.90
12470;DHT22;36499;46.484;13.832;2022-07-29T06:18:11;18.90;99.90
12470;DHT22;36499;46.484;13.832;2022-07-29T06:20:38;18.90;99.90
12470;DHT22;36499;46.484;13.832;2022-07-29T06:23:07;18.90;99.90
12470;DHT22;36499;46.484;13.832;2022-07-29T06:25:35;18.90;99.90
12470;DHT22;36499;46.484;13.832;2022-07-29T06:28:03;18.90;99.90
12470;DHT22;36499;46.484;13.832;2022-07-29T06:30:30;19.00;99.90
12470;DHT22;36499;46.484;13.832;2022-07-29T06:32:57;19.00;99.90
12470;DHT22;36499;46.484;13.832;2022-07-29T06:35:25;19.10;99.90
12470;DHT22;36499;46.484;13.832;2022-07-29T06:37:53;19.20;99.90
12470;DHT22;36499;46.484;13.832;2022-07-29T06:40:21;19.30;99.90
12470;DHT22;36499;46.484;13.832;2022-07-29T06:43:06;19.50;99.90
12470;DHT22;36499;46.484;13.832;2022-07-29T06:45:34;19.70;99.90
12470;DHT22;36499;46.484;13.832;2022-07-29T06:48:01;19.80;99.90
12470;DHT22;36499;46.484;13.832;2022-07-29T06:50:29;19.90;99.90
12470;DHT22;36499;46.484;13.832;2022-07-29T06:52:56;20.00;99.90
12470;DHT22;36499;46.484;13.832;2022-07-29T06:55:24;20.10;99.90
12470;DHT22;36499;46.484;13.832;2022-07-29T06:57:52;20.20;99.90
12470;DHT22;36499;46.484;13.832;2022-07-29T07:00:19;20.20;99.90
12470;DHT22;36499;46.484;13.832;2022-07-29T07:02:46;20.30;99.90
12470;DHT22;36499;46.484;13.832;2022-07-29T07:05:13;20.40;99.90
12470;DHT22;36499;46.484;13.832;2022-07-29T07:07:40;20.40;99.90
12470;DHT22;36499;46.484;13.832;2022-07-29T07:10:08;20.60;99.90
12470;DHT22;36499;46.484;13.832;2022-07-29T07:12:37;20.70;99.90
12470;DHT22;36499;46.484;13.832;2022-07-29T07:15:05;20.90;99.90
12470;DHT22;36499;46.484;13.832;2022-07-29T07:17:33;21.00;99.90
12470;DHT22;36499;46.484;13.832;2022-07-29T07:20:00;21.20;99.90
12470;DHT22;36499;46.484;13.832;2022-07-29T07:22:27;21.20;99.90
12470;DHT22;36499;46.484;13.832;2022-07-29T07:24:54;21.20;99.90
12470;DHT22;36499;46.484;13.832;2022-07-29T07:27:21;21.20;99.90
12470;DHT22;36499;46.484;13.832;2022-07-29T07:29:50;21.20;99.90
12470;DHT22;36499;46.484;13.832;2022-07-29T07:32:17;21.20;99.90
12470;DHT22;36499;46.484;13.832;2022-07-29T07:34:44;21.10;99.90
12470;DHT22;36499;46.484;13.832;2022-07-29T07:37:12;21.10;99.90
12470;DHT22;36499;46.484;13.832;2022-07-29T07:39:40;21.10;99.90
12470;DHT22;36499;46.484;13.832;2022-07-29T07:42:07;21.10;99.90
12470;DHT22;36499;46.484;13.832;2022-07-29T07:44:35;21.10;99.90
12470;DHT22;36499;46.484;13.832;2022-07-29T07:47:04;21.10;99.90
12470;DHT22;36499;46.484;13.832;2022-07-29T07:49:31;21.00;99.90
12470;DHT22;36499;46.484;13.832;2022-07-29T07:51:58;20.90;99.90
12470;DHT22;36499;46.484;13.832;2022-07-29T07:54:26;20.90;99.90
12470;DHT22;36499;46.484;13.832;2022-07-29T07:56:53;20.80;99.90
12470;DHT22;36499;46.484;13.832;2022-07-29T07:59:20;20.80;99.90
12470;DHT22;36499;46.484;13.832;2022-07-29T08:01:48;20.80;99.90
12470;DHT22;36499;46.484;13.832;2022-07-29T08:04:17;20.80;99.90
12470;DHT22;36499;46.484;13.832;2022-07-29T08:06:45;20.80;99.90
12470;DHT22;36499;46.484;13.832;2022-07-29T08:09:12;20.80;99.90
12470;DHT22;36499;46.484;13.832;2022-07-29T08:11:39;20.80;99.90
12470;DHT22;36499;46.484;13.832;2022-07-29T08:14:06;20.80;99.90
12470;DHT22;36499;46.484;13.832;2022-07-29T08:16:33;20.90;99.90
12470;DHT22;36499;46.484;13.832;2022-07-29T08:19:00;21.00;99.90
12470;DHT22;36499;46.484;13.832;2022-07-29T08:21:29;21.10;99.90
12470;DHT22;36499;46.484;13.832;2022-07-29T08:23:56;21.10;99.90
12470;DHT22;36499;46.484;13.832;2022-07-29T08:26:37;21.10;99.90
12470;DHT22;36499;46.484;13.832;2022-07-29T08:29:04;21.30;99.90
12470;DHT22;36499;46.484;13.832;2022-07-29T08:31:31;21.30;99.90
12470;DHT22;36499;46.484;13.832;2022-07-29T08:33:59;21.30;99.90
12470;DHT22;36499;46.484;13.832;2022-07-29T08:36:26;21.20;99.90
12470;DHT22;36499;46.484;13.832;2022-07-29T08:38:55;21.10;99.90
12470;DHT22;36499;46.484;13.832;2022-07-29T08:41:22;21.00;99.90
12470;DHT22;36499;46.484;13.832;2022-07-29T08:43:50;21.10;99.90
12470;DHT22;36499;46.484;13.832;2022-07-29T08:46:18;21.10;99.90
12470;DHT22;36499;46.484;13.832;2022-07-29T08:48:46;21.20;99.90
12470;DHT22;36499;46.484;13.832;2022-07-29T08:51:15;21.20;99.90
12470;DHT22;36499;46.484;13.832;2022-07-29T08:53:44;21.40;99.90
12470;DHT22;36499;46.484;13.832;2022-07-29T08:56:15;21.40;99.90
12470;DHT22;36499;46.484;13.832;2022-07-29T08:58:44;21.40;99.90
12470;DHT22;36499;46.484;13.832;2022-07-29T09:01:16;21.50;99.90
12470;DHT22;36499;46.484;13.832;2022-07-29T09:03:46;21.50;99.90
12470;DHT22;36499;46.484;13.832;2022-07-29T09:06:13;21.50;99.90
12470;DHT22;36499;46.484;13.832;2022-07-29T09:08:41;21.50;99.90
12470;DHT22;36499;46.484;13.832;2022-07-29T09:11:09;21.60;99.90
12470;DHT22;36499;46.484;13.832;2022-07-29T09:13:38;21.70;99.90
12470;DHT22;36499;46.484;13.832;2022-07-29T09:16:06;21.80;99.90
12470;DHT22;36499;46.484;13.832;2022-07-29T09:18:34;21.90;99.90
12470;DHT22;36499;46.484;13.832;2022-07-29T09:21:03;22.00;99.90
12470;DHT22;36499;46.484;13.832;2022-07-29T09:24:05;22.10;99.90
12470;DHT22;36499;46.484;13.832;2022-07-29T09:26:35;22.20;99.90
12470;DHT22;36499;46.484;13.832;2022-07-29T09:29:12;22.40;99.90
12470;DHT22;36499;46.484;13.832;2022-07-29T09:31:43;22.40;99.90
12470;DHT22;36499;46.484;13.832;2022-07-29T09:34:13;22.60;99.90
12470;DHT22;36499;46.484;13.832;2022-07-29T09:36:42;22.80;99.90
12470;DHT22;36499;46.484;13.832;2022-07-29T09:39:11;23.00;99.90
12470;DHT22;36499;46.484;13.832;2022-07-29T09:41:46;23.10;99.90
12470;DHT22;36499;46.484;13.832;2022-07-29T09:44:15;23.10;99.90
12470;DHT22;36499;46.484;13.832;2022-07-29T09:46:57;23.10;99.90
12470;DHT22;36499;46.484;13.832;2022-07-29T09:49:31;23.20;99.90
12470;DHT22;36499;46.484;13.832;2022-07-29T09:52:00;23.30;99.90
12470;DHT22;36499;46.484;13.832;2022-07-29T09:54:31;23.40;99.90
12470;DHT22;36499;46.484;13.832;2022-07-29T09:57:02;23.50;99.90
12470;DHT22;36499;46.484;13.832;2022-07-29T09:59:32;23.50;99.90
12470;DHT22;36499;46.484;13.832;2022-07-29T10:02:00;23.50;99.90
12470;DHT22;36499;46.484;13.832;2022-07-29T10:04:39;23.50;99.90
12470;DHT22;36499;46.484;13.832;2022-07-29T10:07:07;23.50;99.90
12470;DHT22;36499;46.484;13.832;2022-07-29T10:09:35;23.50;99.90
12470;DHT22;36499;46.484;13.832;2022-07-29T10:12:04;23.60;99.90
12470;DHT22;36499;46.484;13.832;2022-07-29T10:14:38;23.70;99.90
12470;DHT22;36499;46.484;13.832;2022-07-29T10:17:06;23.90;99.90
12470;DHT22;36499;46.484;13.832;2022-07-29T10:19:35;24.10;99.90
12470;DHT22;36499;46.484;13.832;2022-07-29T10:22:05;24.30;99.90
12470;DHT22;36499;46.484;13.832;2022-07-29T10:24:33;24.30;99.90
12470;DHT22;36499;46.484;13.832;2022-07-29T10:27:04;24.30;99.90
12470;DHT22;36499;46.484;13.832;2022-07-29T10:29:32;24.40;99.90
12470;DHT22;36499;46.484;13.832;2022-07-29T10:32:20;24.50;99.90
12470;DHT22;36499;46.484;13.832;2022-07-29T10:35:15;24.40;99.90
12470;DHT22;36499;46.484;13.832;2022-07-29T10:41:11;24.50;99.90
12470;DHT22;36499;46.484;13.832;2022-07-29T10:44:05;24.60;99.90
12470;DHT22;36499;46.484;13.832;2022-07-29T10:46:40;24.70;99.90
12470;DHT22;36499;46.484;13.832;2022-07-29T10:49:11;24.80;99.90
12470;DHT22;36499;46.484;13.832;2022-07-29T10:51:56;24.80;99.90
12470;DHT22;36499;46.484;13.832;2022-07-29T10:54:47;24.90;99.90
12470;DHT22;36499;46.484;13.832;2022-07-29T10:57:22;25.20;99.90
12470;DHT22;36499;46.484;13.832;2022-07-29T11:00:25;25.60;99.90
12470;DHT22;36499;46.484;13.832;2022-07-29T11:02:57;26.10;99.90
12470;DHT22;36499;46.484;13.832;2022-07-29T11:05:26;26.60;99.90
12470;DHT22;36499;46.484;13.832;2022-07-29T11:08:18;26.90;99.90
12470;DHT22;36499;46.484;13.832;2022-07-29T11:10:49;26.80;99.90
12470;DHT22;36499;46.484;13.832;2022-07-29T11:13:45;26.70;99.90
12470;DHT22;36499;46.484;13.832;2022-07-29T11:16:19;26.50;99.40
12470;DHT22;36499;46.484;13.832;2022-07-29T11:19:19;26.80;99.80
12470;DHT22;36499;46.484;13.832;2022-07-29T11:21:49;26.90;99.90
12470;DHT22;36499;46.484;13.832;2022-07-29T11:24:20;27.30;99.90
12470;DHT22;36499;46.484;13.832;2022-07-29T11:27:12;27.50;97.80
12470;DHT22;36499;46.484;13.832;2022-07-29T11:29:50;27.60;95.80
12470;DHT22;36499;46.484;13.832;2022-07-29T11:32:19;27.40;93.90
12470;DHT22;36499;46.484;13.832;2022-07-29T11:34:49;27.30;93.70
12470;DHT22;36499;46.484;13.832;2022-07-29T11:37:38;27.40;94.60
12470;DHT22;36499;46.484;13.832;2022-07-29T11:40:14;27.50;94.70
12470;DHT22;36499;46.484;13.832;2022-07-29T11:42:46;27.60;94.50
12470;DHT22;36499;46.484;13.832;2022-07-29T11:45:22;27.80;93.10
12470;DHT22;36499;46.484;13.832;2022-07-29T11:47:55;27.90;94.00
12470;DHT22;36499;46.484;13.832;2022-07-29T11:50:29;27.90;92.00
12470;DHT22;36499;46.484;13.832;2022-07-29T11:53:05;28.10;93.30
12470;DHT22;36499;46.484;13.832;2022-07-29T11:55:39;28.30;93.50
12470;DHT22;36499;46.484;13.832;2022-07-29T11:58:07;28.60;92.40
12470;DHT22;36499;46.484;13.832;2022-07-29T12:00:36;28.80;90.70
12470;DHT22;36499;46.484;13.832;2022-07-29T12:03:06;28.60;88.70
12470;DHT22;36499;46.484;13.832;2022-07-29T12:05:38;28.30;90.00
12470;DHT22;36499;46.484;13.832;2022-07-29T12:08:10;28.00;89.40
12470;DHT22;36499;46.484;13.832;2022-07-29T12:10:41;27.70;86.00
12470;DHT22;36499;46.484;13.832;2022-07-29T12:13:09;27.50;86.80
12470;DHT22;36499;46.484;13.832;2022-07-29T12:15:37;27.60;89.50
12470;DHT22;36499;46.484;13.832;2022-07-29T12:18:13;27.70;87.20
12470;DHT22;36499;46.484;13.832;2022-07-29T12:20:41;27.80;87.30
12470;DHT22;36499;46.484;13.832;2022-07-29T12:23:11;28.20;86.30
12470;DHT22;36499;46.484;13.832;2022-07-29T12:25:40;28.30;87.60
12470;DHT22;36499;46.484;13.832;2022-07-29T12:28:35;28.70;90.10
12470;DHT22;36499;46.484;13.832;2022-07-29T12:31:59;29.00;88.50
12470;DHT22;36499;46.484;13.832;2022-07-29T12:34:27;29.20;82.60
12470;DHT22;36499;46.484;13.832;2022-07-29T12:36:55;29.20;86.80
12470;DHT22;36499;46.484;13.832;2022-07-29T12:39:24;29.30;80.90
12470;DHT22;36499;46.484;13.832;2022-07-29T12:41:53;29.00;82.50
12470;DHT22;36499;46.484;13.832;2022-07-29T12:44:20;29.00;85.10
12470;DHT22;36499;46.484;13.832;2022-07-29T12:47:01;29.00;84.80
12470;DHT22;36499;46.484;13.832;2022-07-29T12:49:29;28.80;86.40
12470;DHT22;36499;46.484;13.832;2022-07-29T12:51:56;28.80;88.30
12470;DHT22;36499;46.484;13.832;2022-07-29T12:54:25;29.20;89.80
12470;DHT22;36499;46.484;13.832;2022-07-29T12:56:58;29.60;86.50
12470;DHT22;36499;46.484;13.832;2022-07-29T12:59:26;29.90;84.80
12470;DHT22;36499;46.484;13.832;2022-07-29T13:01:53;29.80;82.20
12470;DHT22;36499;46.484;13.832;2022-07-29T13:04:27;29.40;81.70
12470;DHT22;36499;46.484;13.832;2022-07-29T13:06:59;29.40;83.10
12470;DHT22;36499;46.484;13.832;2022-07-29T13:09:37;29.40;80.80
12470;DHT22;36499;46.484;13.832;2022-07-29T13:12:07;29.40;83.50
12470;DHT22;36499;46.484;13.832;2022-07-29T13:14:37;29.60;82.70
12470;DHT22;36499;46.484;13.832;2022-07-29T13:17:06;29.70;82.70
12470;DHT22;36499;46.484;13.832;2022-07-29T13:19:36;30.00;85.60
12470;DHT22;36499;46.484;13.832;2022-07-29T13:22:06;30.30;85.30
12470;DHT22;36499;46.484;13.832;2022-07-29T13:24:33;30.50;80.30
12470;DHT22;36499;46.484;13.832;2022-07-29T13:27:02;30.60;80.20
12470;DHT22;36499;46.484;13.832;2022-07-29T13:29:29;30.20;76.50
12470;DHT22;36499;46.484;13.832;2022-07-29T13:31:56;30.30;81.10
12470;DHT22;36499;46.484;13.832;2022-07-29T13:34:23;30.60;79.10
12470;DHT22;36499;46.484;13.832;2022-07-29T13:36:50;30.80;75.00
12470;DHT22;36499;46.484;13.832;2022-07-29T13:39:17;31.00;78.40
12470;DHT22;36499;46.484;13.832;2022-07-29T13:41:45;31.00;77.30
12470;DHT22;36499;46.484;13.832;2022-07-29T13:44:13;31.10;77.60
12470;DHT22;36499;46.484;13.832;2022-07-29T13:46:40;31.00;78.70
12470;DHT22;36499;46.484;13.832;2022-07-29T13:49:07;30.80;77.70
12470;DHT22;36499;46.484;13.832;2022-07-29T13:51:36;30.30;79.80
12470;DHT22;36499;46.484;13.832;2022-07-29T13:54:04;30.10;77.60
12470;DHT22;36499;46.484;13.832;2022-07-29T13:56:31;29.90;78.00
12470;DHT22;36499;46.484;13.832;2022-07-29T13:58:59;29.70;78.80
12470;DHT22;36499;46.484;13.832;2022-07-29T14:01:28;29.40;78.60
12470;DHT22;36499;46.484;13.832;2022-07-29T14:03:55;29.00;78.50
12470;DHT22;36499;46.484;13.832;2022-07-29T14:06:22;28.70;78.80
12470;DHT22;36499;46.484;13.832;2022-07-29T14:08:49;28.50;79.30
12470;DHT22;36499;46.484;13.832;2022-07-29T14:11:17;28.30;80.90
12470;DHT22;36499;46.484;13.832;2022-07-29T14:13:44;28.30;79.90
12470;DHT22;36499;46.484;13.832;2022-07-29T14:16:11;28.30;82.30
12470;DHT22;36499;46.484;13.832;2022-07-29T14:18:40;28.50;82.90
12470;DHT22;36499;46.484;13.832;2022-07-29T14:21:08;28.80;80.50
12470;DHT22;36499;46.484;13.832;2022-07-29T14:23:35;29.10;79.40
12470;DHT22;36499;46.484;13.832;2022-07-29T14:26:03;29.00;77.90
12470;DHT22;36499;46.484;13.832;2022-07-29T14:28:30;28.80;78.50
12470;DHT22;36499;46.484;13.832;2022-07-29T14:30:57;28.60;79.40
12470;DHT22;36499;46.484;13.832;2022-07-29T14:33:24;28.50;80.90
12470;DHT22;36499;46.484;13.832;2022-07-29T14:35:53;28.50;81.60
12470;DHT22;36499;46.484;13.832;2022-07-29T14:38:20;28.50;84.30
12470;DHT22;36499;46.484;13.832;2022-07-29T14:40:47;28.50;82.80
12470;DHT22;36499;46.484;13.832;2022-07-29T14:43:14;28.70;82.60
12470;DHT22;36499;46.484;13.832;2022-07-29T14:45:41;28.80;82.90
12470;DHT22;36499;46.484;13.832;2022-07-29T14:48:08;28.80;82.60
12470;DHT22;36499;46.484;13.832;2022-07-29T14:50:36;28.80;81.80
12470;DHT22;36499;46.484;13.832;2022-07-29T14:53:05;28.70;81.00
12470;DHT22;36499;46.484;13.832;2022-07-29T14:55:32;28.60;80.30
12470;DHT22;36499;46.484;13.832;2022-07-29T14:57:59;28.40;81.40
12470;DHT22;36499;46.484;13.832;2022-07-29T15:00:27;28.30;81.50
12470;DHT22;36499;46.484;13.832;2022-07-29T15:02:57;28.10;82.00
12470;DHT22;36499;46.484;13.832;2022-07-29T15:05:25;28.10;81.60
12470;DHT22;36499;46.484;13.832;2022-07-29T15:07:52;27.90;81.90
12470;DHT22;36499;46.484;13.832;2022-07-29T15:10:21;27.80;83.10
12470;DHT22;36499;46.484;13.832;2022-07-29T15:12:48;27.60;84.60
12470;DHT22;36499;46.484;13.832;2022-07-29T15:15:15;27.60;84.10
12470;DHT22;36499;46.484;13.832;2022-07-29T15:17:42;27.40;83.80
12470;DHT22;36499;46.484;13.832;2022-07-29T15:20:10;27.30;83.20
12470;DHT22;36499;46.484;13.832;2022-07-29T15:22:37;27.10;90.00
12470;DHT22;36499;46.484;13.832;2022-07-29T15:25:07;26.80;91.30
12470;DHT22;36499;46.484;13.832;2022-07-29T15:27:36;26.60;91.10
12470;DHT22;36499;46.484;13.832;2022-07-29T15:30:03;26.30;91.50
12470;DHT22;36499;46.484;13.832;2022-07-29T15:32:31;26.10;92.00
12470;DHT22;36499;46.484;13.832;2022-07-29T15:34:58;26.00;94.60
12470;DHT22;36499;46.484;13.832;2022-07-29T15:37:25;25.90;93.60
12470;DHT22;36499;46.484;13.832;2022-07-29T15:39:53;25.40;96.60